createdAt,value
2019-03-16T00:00:37.869Z,54.30
2019-03-16T00:01:16.916Z,53.90
2019-03-16T00:01:57.376Z,53.50
2019-03-16T00:02:35.417Z,53.30
2019-03-16T00:03:13.977Z,53.00
2019-03-16T00:03:52.495Z,53.00
2019-03-16T00:04:31.056Z,53.70
2019-03-16T00:05:10.525Z,54.00
2019-03-16T00:05:49.632Z,55.10
2019-03-16T00:06:29.898Z,56.00
2019-03-16T00:07:08.956Z,56.50
2019-03-16T00:07:48.338Z,56.80
2019-03-16T00:08:27.637Z,57.40
2019-03-16T00:09:06.853Z,57.80
2019-03-16T00:09:45.322Z,58.20
2019-03-16T00:10:24.042Z,58.40
2019-03-16T00:11:02.809Z,58.50
2019-03-16T00:11:42.073Z,57.00
2019-03-16T00:12:20.666Z,56.20
2019-03-16T00:12:59.143Z,56.10
2019-03-16T00:13:37.994Z,55.70
2019-03-16T00:14:16.526Z,55.30
2019-03-16T00:14:55.085Z,54.70
2019-03-16T00:15:33.681Z,54.50
2019-03-16T00:16:12.666Z,54.10
2019-03-16T00:16:51.952Z,53.80
2019-03-16T00:17:30.926Z,53.60
2019-03-16T00:18:09.982Z,53.40
2019-03-16T00:18:49.062Z,53.10
2019-03-16T00:19:28.042Z,52.80
2019-03-16T00:20:06.544Z,53.20
2019-03-16T00:20:44.959Z,53.00
2019-03-16T00:21:23.667Z,53.50
2019-03-16T00:22:02.173Z,54.20
2019-03-16T00:22:41.245Z,55.00
2019-03-16T00:23:20.152Z,55.80
2019-03-16T00:23:58.709Z,56.20
2019-03-16T00:24:39.158Z,56.80
2019-03-16T00:25:17.633Z,57.10
2019-03-16T00:25:56.648Z,57.50
2019-03-16T00:26:35.161Z,57.80
2019-03-16T00:27:13.724Z,58.20
2019-03-16T00:27:52.681Z,58.30
2019-03-16T00:28:31.858Z,56.30
2019-03-16T00:29:10.369Z,55.90
2019-03-16T00:29:49.665Z,55.60
2019-03-16T00:30:28.985Z,55.20
2019-03-16T00:31:08.476Z,54.80
2019-03-16T00:31:47.820Z,54.40
2019-03-16T00:32:26.405Z,54.00
2019-03-16T00:33:05.020Z,53.70
2019-03-16T00:33:43.529Z,53.40
2019-03-16T00:34:22.609Z,53.30
2019-03-16T00:35:01.767Z,52.90
2019-03-16T00:35:40.570Z,52.70
2019-03-16T00:36:19.830Z,52.90
2019-03-16T00:36:58.322Z,53.40
2019-03-16T00:37:36.767Z,54.50
2019-03-16T00:38:15.216Z,55.00
2019-03-16T00:38:54.033Z,56.20
2019-03-16T00:39:33.146Z,56.50
2019-03-16T00:40:12.345Z,57.10
2019-03-16T00:40:51.434Z,57.30
2019-03-16T00:41:30.654Z,57.70
2019-03-16T00:42:10.003Z,58.00
2019-03-16T00:42:48.488Z,58.30
2019-03-16T00:43:27.557Z,58.20
2019-03-16T00:44:06.237Z,56.50
2019-03-16T00:44:44.925Z,56.10
2019-03-16T00:45:23.933Z,55.70
2019-03-16T00:46:03.296Z,55.30
2019-03-16T00:46:42.429Z,54.90
2019-03-16T00:47:21.466Z,54.60
2019-03-16T00:48:00.628Z,54.20
2019-03-16T00:48:39.126Z,53.90
2019-03-16T00:49:17.569Z,53.50
2019-03-16T00:49:56.236Z,53.30
2019-03-16T00:50:35.456Z,53.10
2019-03-16T00:51:14.395Z,53.00
2019-03-16T00:51:53.813Z,52.60
2019-03-16T00:52:32.557Z,52.40
2019-03-16T00:53:11.057Z,52.20
2019-03-16T00:53:49.586Z,52.50
2019-03-16T00:54:28.186Z,53.10
2019-03-16T00:55:06.914Z,54.10
2019-03-16T00:55:45.921Z,54.90
2019-03-16T00:56:25.066Z,55.80
2019-03-16T00:57:04.397Z,56.00
2019-03-16T00:57:43.386Z,56.60
2019-03-16T00:58:22.543Z,56.90
2019-03-16T00:59:01.543Z,57.30
2019-03-16T00:59:40.718Z,57.20
2019-03-16T01:00:19.222Z,56.00
2019-03-16T01:00:58.627Z,55.10
2019-03-16T01:01:37.099Z,54.80
2019-03-16T01:02:26.436Z,54.40
2019-03-16T01:02:56.041Z,54.10
2019-03-16T01:03:35.167Z,53.80
2019-03-16T01:04:14.632Z,53.60
2019-03-16T01:04:53.362Z,53.20
2019-03-16T01:05:32.453Z,52.90
2019-03-16T01:06:10.946Z,52.60
2019-03-16T01:06:50.009Z,52.50
2019-03-16T01:07:28.489Z,52.30
2019-03-16T01:08:07.434Z,52.10
2019-03-16T01:08:46.567Z,51.90
2019-03-16T01:09:25.527Z,51.70
2019-03-16T01:10:06.019Z,51.40
2019-03-16T01:10:45.127Z,51.30
2019-03-16T01:11:24.120Z,51.20
2019-03-16T01:12:03.139Z,51.60
2019-03-16T01:12:42.224Z,52.10
2019-03-16T01:13:20.937Z,53.30
2019-03-16T01:14:00.048Z,54.10
2019-03-16T01:14:38.518Z,54.70
2019-03-16T01:15:17.300Z,55.40
2019-03-16T01:15:57.106Z,55.60
2019-03-16T01:16:36.022Z,56.00
2019-03-16T01:17:15.235Z,56.10
2019-03-16T01:17:54.358Z,54.40
2019-03-16T01:18:33.578Z,53.90
2019-03-16T01:19:12.617Z,53.60
2019-03-16T01:19:51.878Z,53.30
2019-03-16T01:20:30.433Z,53.60
2019-03-16T01:21:08.926Z,53.00
2019-03-16T01:21:47.642Z,53.40
2019-03-16T01:22:26.844Z,53.00
2019-03-16T01:23:05.931Z,52.60
2019-03-16T01:23:44.876Z,52.40
2019-03-16T01:24:23.962Z,52.30
2019-03-16T01:25:05.156Z,51.80
2019-03-16T01:25:43.313Z,51.70
2019-03-16T01:26:22.291Z,51.30
2019-03-16T01:27:00.815Z,51.20
2019-03-16T01:27:39.285Z,51.10
2019-03-16T01:28:18.488Z,51.00
2019-03-16T01:28:58.026Z,51.30
2019-03-16T01:29:37.345Z,52.10
2019-03-16T01:30:17.579Z,53.30
2019-03-16T01:30:56.595Z,54.20
2019-03-16T01:31:35.612Z,54.90
2019-03-16T01:32:15.350Z,55.60
2019-03-16T01:32:53.833Z,56.10
2019-03-16T01:33:33.131Z,56.10
2019-03-16T01:34:12.023Z,55.10
2019-03-16T01:34:51.148Z,54.20
2019-03-16T01:35:29.595Z,54.00
2019-03-16T01:36:08.567Z,53.70
2019-03-16T01:37:05.701Z,53.50
2019-03-16T01:37:44.845Z,53.10
2019-03-16T01:38:24.043Z,53.40
2019-03-16T01:39:03.346Z,53.40
2019-03-16T01:39:41.794Z,53.50
2019-03-16T01:40:20.230Z,53.40
2019-03-16T01:40:59.114Z,54.00
2019-03-16T01:41:38.228Z,53.20
2019-03-16T01:42:17.432Z,53.10
2019-03-16T01:42:57.126Z,53.00
2019-03-16T01:43:36.387Z,52.90
2019-03-16T01:44:15.025Z,52.90
2019-03-16T01:44:53.625Z,52.90
2019-03-16T01:45:32.254Z,52.90
2019-03-16T01:46:10.807Z,52.90
2019-03-16T01:46:49.322Z,53.00
2019-03-16T01:47:27.880Z,53.00
2019-03-16T01:48:07.238Z,53.10
2019-03-16T01:48:46.392Z,53.30
2019-03-16T01:49:25.008Z,53.30
2019-03-16T01:50:04.272Z,53.30
2019-03-16T01:50:42.804Z,53.30
2019-03-16T01:51:21.310Z,53.40
2019-03-16T01:52:00.395Z,53.50
2019-03-16T01:52:39.442Z,53.50
2019-03-16T01:53:18.717Z,53.50
2019-03-16T01:53:57.852Z,53.60
2019-03-16T01:54:39.029Z,53.60
2019-03-16T01:55:17.328Z,53.80
2019-03-16T01:55:55.848Z,54.00
2019-03-16T01:56:34.930Z,54.10
2019-03-16T01:57:13.766Z,54.20
2019-03-16T01:57:52.366Z,54.40
2019-03-16T01:58:30.860Z,54.40
2019-03-16T01:59:09.884Z,54.50
2019-03-16T01:59:51.527Z,54.60
2019-03-16T02:00:30.274Z,54.80
2019-03-16T02:01:09.560Z,54.80
2019-03-16T02:01:49.505Z,54.90
2019-03-16T02:02:28.632Z,55.20
2019-03-16T02:03:07.170Z,55.20
2019-03-16T02:03:45.928Z,55.10
2019-03-16T02:04:25.215Z,55.70
2019-03-16T02:05:03.949Z,55.60
2019-03-16T02:05:42.781Z,55.90
2019-03-16T02:06:21.816Z,55.80
2019-03-16T02:07:01.084Z,55.80
2019-03-16T02:07:39.556Z,55.60
2019-03-16T02:08:20.682Z,56.00
2019-03-16T02:09:00.682Z,56.10
2019-03-16T02:09:39.652Z,56.40
2019-03-16T02:10:18.468Z,56.50
2019-03-16T02:11:01.318Z,56.50
2019-03-16T02:11:40.370Z,56.40
2019-03-16T02:12:19.033Z,56.50
2019-03-16T02:12:59.525Z,56.60
2019-03-16T02:13:38.894Z,56.80
2019-03-16T02:14:17.419Z,57.00
2019-03-16T02:14:56.589Z,57.10
2019-03-16T02:15:35.709Z,57.30
2019-03-16T02:16:14.827Z,57.40
2019-03-16T02:16:53.270Z,57.50
2019-03-16T02:17:32.958Z,57.60
2019-03-16T02:18:11.533Z,57.70
2019-03-16T02:18:50.070Z,57.80
2019-03-16T02:19:28.554Z,58.60
2019-03-16T02:20:08.125Z,57.90
2019-03-16T02:20:47.440Z,58.20
2019-03-16T02:21:31.824Z,58.40
2019-03-16T02:22:14.018Z,58.20
2019-03-16T02:22:52.617Z,58.50
2019-03-16T02:23:32.005Z,58.50
2019-03-16T02:24:11.786Z,58.40
2019-03-16T02:24:50.811Z,58.60
2019-03-16T02:25:29.534Z,58.80
2019-03-16T02:26:08.853Z,59.40
2019-03-16T02:26:48.035Z,58.90
2019-03-16T02:27:26.857Z,59.00
2019-03-16T02:28:06.614Z,59.10
2019-03-16T02:28:45.082Z,59.10
2019-03-16T02:29:23.668Z,59.40
2019-03-16T02:30:02.679Z,59.30
2019-03-16T02:30:41.951Z,59.40
2019-03-16T02:31:20.413Z,59.40
2019-03-16T02:31:59.554Z,59.40
2019-03-16T02:32:38.664Z,59.70
2019-03-16T02:33:17.875Z,59.50
2019-03-16T02:33:57.836Z,59.70
2019-03-16T02:34:36.484Z,59.80
2019-03-16T02:35:14.956Z,59.90
2019-03-16T02:35:53.659Z,59.90
2019-03-16T02:36:32.752Z,60.20
2019-03-16T02:37:11.967Z,60.10
2019-03-16T02:37:51.398Z,60.30
2019-03-16T02:38:29.942Z,59.90
2019-03-16T02:39:09.654Z,60.10
2019-03-16T02:39:48.905Z,60.20
2019-03-16T02:40:27.381Z,60.00
2019-03-16T02:41:05.878Z,60.20
2019-03-16T02:41:44.362Z,60.40
2019-03-16T02:42:23.204Z,60.40
2019-03-16T02:43:02.305Z,60.50
2019-03-16T02:43:41.411Z,60.50
2019-03-16T02:44:20.058Z,60.60
2019-03-16T02:44:58.763Z,60.50
2019-03-16T02:45:37.317Z,60.60
2019-03-16T02:46:15.882Z,60.70
2019-03-16T02:46:54.782Z,61.00
2019-03-16T02:47:33.861Z,61.00
2019-03-16T02:48:12.477Z,61.00
2019-03-16T02:48:51.549Z,61.20
2019-03-16T02:49:29.986Z,61.00
2019-03-16T02:50:08.876Z,61.40
2019-03-16T02:50:47.378Z,61.60
2019-03-16T02:51:26.021Z,61.30
2019-03-16T02:52:05.214Z,61.40
2019-03-16T02:52:44.305Z,61.40
2019-03-16T02:53:23.685Z,61.30
2019-03-16T02:54:02.844Z,61.50
2019-03-16T02:54:42.261Z,61.30
2019-03-16T02:55:22.015Z,61.70
2019-03-16T02:56:02.129Z,61.60
2019-03-16T02:56:41.395Z,61.40
2019-03-16T02:57:20.187Z,61.50
2019-03-16T02:57:59.542Z,61.70
2019-03-16T02:58:38.550Z,61.70
2019-03-16T02:59:17.775Z,61.70
2019-03-16T02:59:56.381Z,61.80
2019-03-16T03:00:34.980Z,61.60
2019-03-16T03:01:16.745Z,62.20
2019-03-16T03:01:58.648Z,61.70
2019-03-16T03:02:37.187Z,62.00
2019-03-16T03:03:28.656Z,61.60
2019-03-16T03:03:56.245Z,61.80
2019-03-16T03:04:35.421Z,61.90
2019-03-16T03:05:14.724Z,62.00
2019-03-16T03:05:53.861Z,62.10
2019-03-16T03:06:32.919Z,62.30
2019-03-16T03:07:11.589Z,62.10
2019-03-16T03:07:50.211Z,62.10
2019-03-16T03:08:28.915Z,61.80
2019-03-16T03:09:09.709Z,62.20
2019-03-16T03:09:48.195Z,61.50
2019-03-16T03:10:27.210Z,62.20
2019-03-16T03:11:06.298Z,62.20
2019-03-16T03:11:45.579Z,62.10
2019-03-16T03:12:25.578Z,62.50
2019-03-16T03:13:04.050Z,61.90
2019-03-16T03:13:43.040Z,61.90
2019-03-16T03:14:22.037Z,62.90
2019-03-16T03:15:01.221Z,63.70
2019-03-16T03:15:39.711Z,61.80
2019-03-16T03:16:18.146Z,62.80
2019-03-16T03:16:57.187Z,62.10
2019-03-16T03:17:36.109Z,62.10
2019-03-16T03:18:15.383Z,62.40
2019-03-16T03:18:54.150Z,63.40
2019-03-16T03:19:32.715Z,63.10
2019-03-16T03:20:11.905Z,63.60
2019-03-16T03:20:51.696Z,63.90
2019-03-16T03:21:32.380Z,64.40
2019-03-16T03:22:11.150Z,63.90
2019-03-16T03:22:50.791Z,63.60
2019-03-16T03:23:29.305Z,64.10
2019-03-16T03:24:08.156Z,63.40
2019-03-16T03:24:47.261Z,63.80
2019-03-16T03:25:26.786Z,63.90
2019-03-16T03:26:06.301Z,63.30
2019-03-16T03:26:45.788Z,63.40
2019-03-16T03:27:24.971Z,63.80
2019-03-16T03:28:04.301Z,64.40
2019-03-16T03:28:45.593Z,64.60
2019-03-16T03:29:26.067Z,64.40
2019-03-16T03:30:06.371Z,65.10
2019-03-16T03:30:45.754Z,64.20
2019-03-16T03:31:24.967Z,65.10
2019-03-16T03:32:04.119Z,64.60
2019-03-16T03:32:44.007Z,64.40
2019-03-16T03:33:24.932Z,64.30
2019-03-16T03:34:04.276Z,64.80
2019-03-16T03:34:43.637Z,65.70
2019-03-16T03:35:28.761Z,65.50
2019-03-16T03:36:05.319Z,65.00
2019-03-16T03:36:44.298Z,65.50
2019-03-16T03:37:24.098Z,65.00
2019-03-16T03:38:02.968Z,64.70
2019-03-16T03:38:41.666Z,64.50
2019-03-16T03:39:20.133Z,64.70
2019-03-16T03:39:59.000Z,64.70
2019-03-16T03:40:38.162Z,65.30
2019-03-16T03:41:17.371Z,65.30
2019-03-16T03:42:02.498Z,65.40
2019-03-16T03:42:41.527Z,65.90
2019-03-16T03:43:20.435Z,65.40
2019-03-16T03:43:59.269Z,64.80
2019-03-16T03:44:38.379Z,64.60
2019-03-16T03:45:19.350Z,65.10
2019-03-16T03:45:58.483Z,65.20
2019-03-16T03:46:39.061Z,64.80
2019-03-16T03:47:18.009Z,64.60
2019-03-16T03:47:57.118Z,65.20
2019-03-16T03:48:35.543Z,64.70
2019-03-16T03:49:14.877Z,65.10
2019-03-16T03:49:53.416Z,64.80
2019-03-16T03:50:31.905Z,65.70
2019-03-16T03:51:10.385Z,65.40
2019-03-16T03:51:49.285Z,65.40
2019-03-16T03:52:28.506Z,65.70
2019-03-16T03:53:07.803Z,65.00
2019-03-16T03:53:46.853Z,64.90
2019-03-16T03:54:25.482Z,64.80
2019-03-16T03:55:04.282Z,65.30
2019-03-16T03:55:42.875Z,65.70
2019-03-16T03:56:21.426Z,64.80
2019-03-16T03:56:59.869Z,65.00
2019-03-16T03:57:41.570Z,64.60
2019-03-16T03:58:23.637Z,64.70
2019-03-16T03:59:02.595Z,65.40
2019-03-16T03:59:41.157Z,65.00
2019-03-16T04:00:19.716Z,64.00
2019-03-16T04:00:58.651Z,64.20
2019-03-16T04:01:37.707Z,64.00
2019-03-16T04:02:16.276Z,64.10
2019-03-16T04:02:55.684Z,63.50
2019-03-16T04:03:34.905Z,64.80
2019-03-16T04:04:16.078Z,64.90
2019-03-16T04:04:55.615Z,65.20
2019-03-16T04:05:34.859Z,64.80
2019-03-16T04:06:13.530Z,64.70
2019-03-16T04:06:53.034Z,64.20
2019-03-16T04:07:31.539Z,64.90
2019-03-16T04:08:10.267Z,65.70
2019-03-16T04:08:49.567Z,65.10
2019-03-16T04:09:28.418Z,64.90
2019-03-16T04:10:08.198Z,64.30
2019-03-16T04:10:47.436Z,64.60
2019-03-16T04:11:25.986Z,64.60
2019-03-16T04:12:04.461Z,65.20
2019-03-16T04:12:42.980Z,64.80
2019-03-16T04:13:21.725Z,65.40
2019-03-16T04:14:00.840Z,63.90
2019-03-16T04:14:39.644Z,64.40
2019-03-16T04:15:18.837Z,64.70
2019-03-16T04:15:57.979Z,64.20
2019-03-16T04:16:37.245Z,65.30
2019-03-16T04:17:16.368Z,65.10
2019-03-16T04:17:54.872Z,65.00
2019-03-16T04:18:34.514Z,64.60
2019-03-16T04:19:13.792Z,64.50
2019-03-16T04:19:52.341Z,65.40
2019-03-16T04:20:31.584Z,65.90
2019-03-16T04:21:10.610Z,65.30
2019-03-16T04:21:49.690Z,65.50
2019-03-16T04:22:28.891Z,66.00
2019-03-16T04:23:07.946Z,65.10
2019-03-16T04:23:47.047Z,65.30
2019-03-16T04:24:25.559Z,66.10
2019-03-16T04:25:04.796Z,66.40
2019-03-16T04:25:43.744Z,66.30
2019-03-16T04:26:22.242Z,65.00
2019-03-16T04:27:15.175Z,64.70
2019-03-16T04:27:41.723Z,64.70
2019-03-16T04:28:20.225Z,65.10
2019-03-16T04:28:59.637Z,65.40
2019-03-16T04:29:38.774Z,64.50
2019-03-16T04:30:17.380Z,64.20
2019-03-16T04:30:56.451Z,64.80
2019-03-16T04:31:35.442Z,63.80
2019-03-16T04:32:14.789Z,65.20
2019-03-16T04:32:53.535Z,65.30
2019-03-16T04:33:32.689Z,66.00
2019-03-16T04:34:11.975Z,65.80
2019-03-16T04:34:50.810Z,64.70
2019-03-16T04:35:29.751Z,65.60
2019-03-16T04:36:08.919Z,65.20
2019-03-16T04:36:48.415Z,65.00
2019-03-16T04:37:26.853Z,65.60
2019-03-16T04:38:05.273Z,65.90
2019-03-16T04:38:44.178Z,65.40
2019-03-16T04:39:23.091Z,65.10
2019-03-16T04:40:02.093Z,66.10
2019-03-16T04:40:40.849Z,66.40
2019-03-16T04:41:20.103Z,66.60
2019-03-16T04:41:58.617Z,64.40
2019-03-16T04:42:37.122Z,65.20
2019-03-16T04:43:15.529Z,65.40
2019-03-16T04:43:54.159Z,64.90
2019-03-16T04:44:33.409Z,65.60
2019-03-16T04:45:16.210Z,65.40
2019-03-16T04:45:56.810Z,65.00
2019-03-16T04:46:37.486Z,65.50
2019-03-16T04:47:16.629Z,65.60
2019-03-16T04:47:55.254Z,66.00
2019-03-16T04:48:34.130Z,65.30
2019-03-16T04:49:13.044Z,66.20
2019-03-16T04:49:52.244Z,65.50
2019-03-16T04:50:31.485Z,64.80
2019-03-16T04:51:10.016Z,65.30
2019-03-16T04:51:48.469Z,65.50
2019-03-16T04:52:27.502Z,65.00
2019-03-16T04:53:06.059Z,65.50
2019-03-16T04:53:44.978Z,65.10
2019-03-16T04:54:23.826Z,65.20
2019-03-16T04:55:03.043Z,65.60
2019-03-16T04:55:41.564Z,65.90
2019-03-16T04:56:20.539Z,66.60
2019-03-16T04:56:59.610Z,66.00
2019-03-16T04:57:38.109Z,65.70
2019-03-16T04:58:17.087Z,66.20
2019-03-16T04:58:55.558Z,65.90
2019-03-16T04:59:34.004Z,65.80
2019-03-16T05:00:13.079Z,64.60
2019-03-16T05:00:56.670Z,65.40
2019-03-16T05:01:38.457Z,65.80
2019-03-16T05:02:19.377Z,65.90
2019-03-16T05:03:08.617Z,65.30
2019-03-16T05:03:49.091Z,66.10
2019-03-16T05:04:41.675Z,65.70
2019-03-16T05:05:10.079Z,65.20
2019-03-16T05:05:59.675Z,65.70
2019-03-16T05:06:39.231Z,65.80
2019-03-16T05:07:17.822Z,64.70
2019-03-16T05:07:56.714Z,65.40
2019-03-16T05:08:37.693Z,66.30
2019-03-16T05:09:16.401Z,65.30
2019-03-16T05:09:54.900Z,64.90
2019-03-16T05:10:34.064Z,65.30
2019-03-16T05:11:13.144Z,66.00
2019-03-16T05:11:52.204Z,65.80
2019-03-16T05:12:31.506Z,64.70
2019-03-16T05:13:10.727Z,65.50
2019-03-16T05:13:49.294Z,65.70
2019-03-16T05:14:27.906Z,64.50
2019-03-16T05:15:06.614Z,65.80
2019-03-16T05:15:45.729Z,65.70
2019-03-16T05:16:24.802Z,64.90
2019-03-16T05:17:03.880Z,64.90
2019-03-16T05:17:42.881Z,65.40
2019-03-16T05:18:21.389Z,65.30
2019-03-16T05:19:00.490Z,65.00
2019-03-16T05:19:39.611Z,64.90
2019-03-16T05:20:18.076Z,65.10
2019-03-16T05:20:56.861Z,65.60
2019-03-16T05:21:35.891Z,64.80
2019-03-16T05:22:15.888Z,64.80
2019-03-16T05:22:55.208Z,65.40
2019-03-16T05:23:33.945Z,65.60
2019-03-16T05:24:12.869Z,64.60
2019-03-16T05:24:51.401Z,64.70
2019-03-16T05:25:29.918Z,64.80
2019-03-16T05:26:08.438Z,64.30
2019-03-16T05:26:47.344Z,65.10
2019-03-16T05:27:26.158Z,65.00
2019-03-16T05:28:05.285Z,64.50
2019-03-16T05:28:43.787Z,64.90
2019-03-16T05:29:23.275Z,65.10
2019-03-16T05:30:02.314Z,65.20
2019-03-16T05:30:41.061Z,64.70
2019-03-16T05:31:20.122Z,65.40
2019-03-16T05:31:58.819Z,65.00
2019-03-16T05:32:37.692Z,64.70
2019-03-16T05:33:16.832Z,64.90
2019-03-16T05:33:56.231Z,65.70
2019-03-16T05:34:35.311Z,64.80
2019-03-16T05:35:15.208Z,65.10
2019-03-16T05:35:54.294Z,65.30
2019-03-16T05:36:33.292Z,65.50
2019-03-16T05:37:11.771Z,65.20
2019-03-16T05:37:51.029Z,65.10
2019-03-16T05:38:29.618Z,64.80
2019-03-16T05:39:09.758Z,65.10
2019-03-16T05:39:48.568Z,64.80
2019-03-16T05:40:27.052Z,64.60
2019-03-16T05:41:06.003Z,65.20
2019-03-16T05:41:48.256Z,65.00
2019-03-16T05:42:29.187Z,65.00
2019-03-16T05:43:09.049Z,64.90
2019-03-16T05:43:50.272Z,64.80
2019-03-16T05:44:30.057Z,64.30
2019-03-16T05:45:08.877Z,64.20
2019-03-16T05:45:47.607Z,64.60
2019-03-16T05:46:26.686Z,64.50
2019-03-16T05:47:05.695Z,64.40
2019-03-16T05:47:44.589Z,64.20
2019-03-16T05:48:23.774Z,64.00
2019-03-16T05:49:02.534Z,64.50
2019-03-16T05:49:41.701Z,63.90
2019-03-16T05:50:20.271Z,64.00
2019-03-16T05:50:59.278Z,63.90
2019-03-16T05:51:38.122Z,64.10
2019-03-16T05:52:17.386Z,64.20
2019-03-16T05:52:56.441Z,64.20
2019-03-16T05:53:35.657Z,64.30
2019-03-16T05:54:14.188Z,63.60
2019-03-16T05:54:53.256Z,64.10
2019-03-16T05:55:31.579Z,64.20
2019-03-16T05:56:10.221Z,64.70
2019-03-16T05:56:49.306Z,63.80
2019-03-16T05:57:28.518Z,63.80
2019-03-16T05:58:07.464Z,63.90
2019-03-16T05:58:46.621Z,63.80
2019-03-16T05:59:25.761Z,65.90
2019-03-16T06:00:04.244Z,66.20
2019-03-16T06:00:43.357Z,66.00
2019-03-16T06:01:21.772Z,65.80
2019-03-16T06:02:00.439Z,65.70
2019-03-16T06:02:39.514Z,65.50
2019-03-16T06:03:18.622Z,65.50
2019-03-16T06:03:57.646Z,65.40
2019-03-16T06:04:36.852Z,65.10
2019-03-16T06:05:15.990Z,65.10
2019-03-16T06:05:54.685Z,65.00
2019-03-16T06:06:33.862Z,65.10
2019-03-16T06:07:12.359Z,65.10
2019-03-16T06:07:51.075Z,64.80
2019-03-16T06:08:29.841Z,65.10
2019-03-16T06:09:09.617Z,64.90
2019-03-16T06:09:48.670Z,65.00
2019-03-16T06:10:27.892Z,65.10
2019-03-16T06:11:06.864Z,65.10
2019-03-16T06:11:46.209Z,65.90
2019-03-16T06:12:25.466Z,64.80
2019-03-16T06:13:04.550Z,64.60
2019-03-16T06:13:43.720Z,64.60
2019-03-16T06:14:22.236Z,64.60
2019-03-16T06:15:01.039Z,64.40
2019-03-16T06:15:39.681Z,64.40
2019-03-16T06:16:18.216Z,64.30
2019-03-16T06:16:57.434Z,64.00
2019-03-16T06:17:39.408Z,64.00
2019-03-16T06:18:17.868Z,63.90
2019-03-16T06:18:57.114Z,63.90
2019-03-16T06:19:35.594Z,63.80
2019-03-16T06:20:14.912Z,63.80
2019-03-16T06:20:53.419Z,63.60
2019-03-16T06:21:32.230Z,63.50
2019-03-16T06:22:11.267Z,63.50
2019-03-16T06:22:50.277Z,63.60
2019-03-16T06:23:29.330Z,63.40
2019-03-16T06:24:08.411Z,63.40
2019-03-16T06:24:47.424Z,63.40
2019-03-16T06:25:26.156Z,64.20
2019-03-16T06:26:04.681Z,63.50
2019-03-16T06:26:43.128Z,63.40
2019-03-16T06:27:21.669Z,63.30
2019-03-16T06:28:00.259Z,63.10
2019-03-16T06:28:39.156Z,63.10
2019-03-16T06:29:21.056Z,63.90
2019-03-16T06:29:59.826Z,63.00
2019-03-16T06:30:39.072Z,62.90
2019-03-16T06:31:20.515Z,62.80
2019-03-16T06:31:59.454Z,62.80
2019-03-16T06:32:38.574Z,62.90
2019-03-16T06:33:17.048Z,62.90
2019-03-16T06:33:56.435Z,62.80
2019-03-16T06:34:35.584Z,62.80
2019-03-16T06:35:24.669Z,62.80
2019-03-16T06:35:55.371Z,62.70
2019-03-16T06:36:34.064Z,62.60
2019-03-16T06:37:12.797Z,62.60
2019-03-16T06:37:53.973Z,62.60
2019-03-16T06:38:33.414Z,62.60
2019-03-16T06:39:14.184Z,62.50
2019-03-16T06:39:54.693Z,62.60
2019-03-16T06:40:37.995Z,62.70
2019-03-16T06:41:25.611Z,62.50
2019-03-16T06:42:17.561Z,62.30
2019-03-16T06:42:56.448Z,62.60
2019-03-16T06:43:35.223Z,62.60
2019-03-16T06:44:14.366Z,62.40
2019-03-16T06:44:53.254Z,62.50
2019-03-16T06:45:32.852Z,62.30
2019-03-16T06:46:11.366Z,62.20
2019-03-16T06:46:50.232Z,62.20
2019-03-16T06:47:28.718Z,62.20
2019-03-16T06:48:07.991Z,62.10
2019-03-16T06:48:46.545Z,62.30
2019-03-16T06:49:25.036Z,62.10
2019-03-16T06:50:03.527Z,62.20
2019-03-16T06:50:42.686Z,62.20
2019-03-16T06:51:21.776Z,62.10
2019-03-16T06:52:00.886Z,62.00
2019-03-16T06:52:40.217Z,62.00
2019-03-16T06:53:19.948Z,62.10
2019-03-16T06:53:58.866Z,62.30
2019-03-16T06:54:37.371Z,62.10
2019-03-16T06:55:16.725Z,62.00
2019-03-16T06:55:55.621Z,62.00
2019-03-16T06:56:34.306Z,62.10
2019-03-16T06:57:13.384Z,62.10
2019-03-16T06:57:52.049Z,62.00
2019-03-16T06:58:31.295Z,62.00
2019-03-16T06:59:10.409Z,62.10
2019-03-16T06:59:50.957Z,62.00
2019-03-16T07:00:30.130Z,62.00
2019-03-16T07:01:09.248Z,62.00
2019-03-16T07:01:48.096Z,62.10
2019-03-16T07:02:27.826Z,62.10
2019-03-16T07:03:06.535Z,62.10
2019-03-16T07:03:45.223Z,62.10
2019-03-16T07:04:23.982Z,62.10
2019-03-16T07:05:03.138Z,62.10
2019-03-16T07:05:41.663Z,61.90
2019-03-16T07:06:21.199Z,62.00
2019-03-16T07:07:00.212Z,62.10
2019-03-16T07:07:38.875Z,61.90
2019-03-16T07:08:17.388Z,61.90
2019-03-16T07:08:56.032Z,61.70
2019-03-16T07:09:34.723Z,61.70
2019-03-16T07:10:13.752Z,61.70
2019-03-16T07:10:52.629Z,61.70
2019-03-16T07:11:31.670Z,61.60
2019-03-16T07:12:11.000Z,61.60
2019-03-16T07:12:51.421Z,62.00
2019-03-16T07:13:32.483Z,62.20
2019-03-16T07:14:15.155Z,62.00
2019-03-16T07:14:58.304Z,61.90
2019-03-16T07:15:38.647Z,61.90
2019-03-16T07:16:21.907Z,61.70
2019-03-16T07:17:04.669Z,61.70
2019-03-16T07:17:44.311Z,61.50
2019-03-16T07:18:25.231Z,61.60
2019-03-16T07:19:04.582Z,61.60
2019-03-16T07:19:45.146Z,61.60
2019-03-16T07:20:23.932Z,61.60
2019-03-16T07:21:08.323Z,62.80
2019-03-16T07:21:50.746Z,62.50
2019-03-16T07:22:34.629Z,63.40
2019-03-16T07:23:16.404Z,63.60
2019-03-16T07:24:00.171Z,63.60
2019-03-16T07:24:44.700Z,63.80
2019-03-16T07:25:24.663Z,63.80
2019-03-16T07:26:14.231Z,63.80
2019-03-16T07:26:45.854Z,63.70
2019-03-16T07:27:28.113Z,63.70
2019-03-16T07:28:09.835Z,63.80
2019-03-16T07:28:48.346Z,63.80
2019-03-16T07:29:29.049Z,63.90
2019-03-16T07:30:08.285Z,63.90
2019-03-16T07:30:46.844Z,64.00
2019-03-16T07:31:25.939Z,64.10
2019-03-16T07:32:05.073Z,64.00
2019-03-16T07:32:44.065Z,64.00
2019-03-16T07:33:23.723Z,64.10
2019-03-16T07:34:08.389Z,63.90
2019-03-16T07:34:48.177Z,63.90
2019-03-16T07:35:28.333Z,63.90
2019-03-16T07:36:07.292Z,63.70
2019-03-16T07:36:46.916Z,63.80
2019-03-16T07:37:29.363Z,63.60
2019-03-16T07:38:08.024Z,63.70
2019-03-16T07:38:53.522Z,63.80
2019-03-16T07:39:34.054Z,63.80
2019-03-16T07:40:13.375Z,63.80
2019-03-16T07:40:52.561Z,63.70
2019-03-16T07:41:34.940Z,63.90
2019-03-16T07:42:14.517Z,63.90
2019-03-16T07:42:53.062Z,63.90
2019-03-16T07:43:32.314Z,63.90
2019-03-16T07:44:10.957Z,63.90
2019-03-16T07:44:49.577Z,63.80
2019-03-16T07:45:28.507Z,63.90
2019-03-16T07:46:07.033Z,63.80
2019-03-16T07:46:46.387Z,63.80
2019-03-16T07:47:26.057Z,63.80
2019-03-16T07:48:05.850Z,63.70
2019-03-16T07:49:02.955Z,63.90
2019-03-16T07:49:41.949Z,64.00
2019-03-16T07:50:20.618Z,65.10
2019-03-16T07:50:59.105Z,64.50
2019-03-16T07:51:37.786Z,64.50
2019-03-16T07:52:18.231Z,64.50
2019-03-16T07:52:57.428Z,64.60
2019-03-16T07:53:36.443Z,64.60
2019-03-16T07:54:14.973Z,64.60
2019-03-16T07:54:53.788Z,64.70
2019-03-16T07:55:33.539Z,64.60
2019-03-16T07:56:12.291Z,64.70
2019-03-16T07:56:50.802Z,64.90
2019-03-16T07:57:39.506Z,64.90
2019-03-16T07:58:09.779Z,64.90
2019-03-16T07:58:48.137Z,65.20
2019-03-16T07:59:27.258Z,65.00
2019-03-16T08:00:06.798Z,64.90
2019-03-16T08:00:46.049Z,65.00
2019-03-16T08:01:25.116Z,65.10
2019-03-16T08:02:03.549Z,65.00
2019-03-16T08:02:42.160Z,64.90
2019-03-16T08:03:20.679Z,65.20
2019-03-16T08:04:00.226Z,65.10
2019-03-16T08:04:39.081Z,65.20
2019-03-16T08:05:19.209Z,65.20
2019-03-16T08:05:57.909Z,65.30
2019-03-16T08:06:39.900Z,65.20
2019-03-16T08:07:18.913Z,65.10
2019-03-16T08:07:57.504Z,65.20
2019-03-16T08:08:36.776Z,65.80
2019-03-16T08:09:15.711Z,64.90
2019-03-16T08:09:54.340Z,64.90
2019-03-16T08:10:33.096Z,64.70
2019-03-16T08:11:11.663Z,64.60
2019-03-16T08:11:51.808Z,64.60
2019-03-16T08:12:32.549Z,64.60
2019-03-16T08:13:10.470Z,64.60
2019-03-16T08:13:49.355Z,64.40
2019-03-16T08:14:28.518Z,64.40
2019-03-16T08:15:07.786Z,64.20
2019-03-16T08:15:47.031Z,64.20
2019-03-16T08:16:26.198Z,64.20
2019-03-16T08:17:05.354Z,64.20
2019-03-16T08:17:43.948Z,64.10
2019-03-16T08:18:25.060Z,64.00
2019-03-16T08:19:03.519Z,63.90
2019-03-16T08:19:42.531Z,63.90
2019-03-16T08:20:21.009Z,64.10
2019-03-16T08:20:59.960Z,63.70
2019-03-16T08:21:39.110Z,63.80
2019-03-16T08:22:17.764Z,63.70
2019-03-16T08:22:56.906Z,63.80
2019-03-16T08:23:35.517Z,63.70
2019-03-16T08:24:14.814Z,63.70
2019-03-16T08:24:53.304Z,63.80
2019-03-16T08:25:32.007Z,63.60
2019-03-16T08:26:11.025Z,63.50
2019-03-16T08:26:51.568Z,63.50